Time;durP1;ratioP1;P1;durP2;ratioP2;P2;SDS_P1;SDS_P2;PMS_P1;PMS_P2;Temp;Humidity;BMP_temperature;BMP_pressure;BME280_temperature;BME280_humidity;BME280_pressure;Samples;Min_cycle;Max_cycle;Signal;HPM_P1;HPM_P2
2022/07/16 00:03:04;;;;;;;8.30;4.70;;;;;;;14.25;54.91;100696.33;109130;1266;22025;-77
2022/07/16 00:05:34;;;;;;;9.30;4.10;;;;;;;14.25;54.98;100697.59;109115;1267;21992;-76
2022/07/16 00:08:03;;;;;;;7.70;3.50;;;;;;;14.24;54.75;100696.09;109010;1267;22952;-76
2022/07/16 00:10:32;;;;;;;8.10;3.10;;;;;;;14.21;54.68;100701.25;109065;1267;23641;-76
2022/07/16 00:13:02;;;;;;;6.90;3.50;;;;;;;14.21;54.79;100698.63;108920;1267;21969;-75
2022/07/16 00:15:31;;;;;;;6.00;3.00;;;;;;;14.21;54.43;100699.45;109252;1262;22949;-76
2022/07/16 00:20:48;;;;;;;9.40;3.90;;;;;;;14.21;54.32;100694.38;109161;1266;21991;-76
2022/07/16 00:23:17;;;;;;;8.60;3.90;;;;;;;14.19;54.43;100689.98;108975;1267;22017;-76
2022/07/16 00:25:46;;;;;;;5.30;3.10;;;;;;;14.17;54.53;100693.04;108921;1267;23822;-76
2022/07/16 00:28:15;;;;;;;7.70;3.50;;;;;;;14.16;54.65;100693.41;109117;1267;21968;-76
2022/07/16 00:30:44;;;;;;;7.80;3.30;;;;;;;14.13;54.76;100690.92;109099;1267;22083;-76
2022/07/16 00:33:13;;;;;;;7.80;3.20;;;;;;;14.10;54.73;100690.52;108905;1267;23628;-76
2022/07/16 00:35:42;;;;;;;8.90;4.00;;;;;;;14.09;54.80;100689.27;108915;1267;22883;-76
2022/07/16 00:38:12;;;;;;;7.50;3.50;;;;;;;14.09;54.97;100687.43;109154;1266;23030;-76
2022/07/16 00:40:41;;;;;;;6.20;3.30;;;;;;;14.10;55.02;100682.38;109588;1263;21967;-76
2022/07/16 00:43:13;;;;;;;4.40;2.90;;;;;;;14.10;55.23;100686.55;109605;1263;23084;-76
2022/07/16 00:45:42;;;;;;;10.30;3.40;;;;;;;14.09;55.31;100686.36;109580;1263;21984;-76
2022/07/16 00:48:11;;;;;;;5.10;2.70;;;;;;;14.07;55.55;100684.06;109537;1263;22054;-76
2022/07/16 00:50:41;;;;;;;5.90;3.20;;;;;;;14.06;55.73;100681.58;109629;1263;23703;-76
2022/07/16 00:53:11;;;;;;;7.60;3.50;;;;;;;14.05;55.76;100680.34;109537;1263;21996;-76
2022/07/16 00:55:40;;;;;;;8.60;2.80;;;;;;;14.03;55.84;100680.16;109591;1263;22851;-76
2022/07/16 00:58:09;;;;;;;5.30;2.70;;;;;;;14.03;55.77;100681.61;109165;1263;21971;-76
2022/07/16 01:00:38;;;;;;;5.60;2.60;;;;;;;14.03;55.87;100682.44;109552;1263;23702;-76
2022/07/16 01:03:07;;;;;;;6.70;3.00;;;;;;;14.05;55.98;100681.52;109678;1263;21984;-76
2022/07/16 01:05:37;;;;;;;5.80;2.40;;;;;;;14.07;56.06;100681.14;109134;1263;23051;-76
2022/07/16 01:08:07;;;;;;;9.80;2.70;;;;;;;14.07;56.06;100682.00;109112;1263;23174;-76
2022/07/16 01:10:36;;;;;;;6.90;3.60;;;;;;;14.06;56.07;100680.11;109154;1266;23103;-76
2022/07/16 01:13:07;;;;;;;8.80;3.00;;;;;;;14.06;56.11;100680.23;109030;1267;23740;-76
2022/07/16 01:15:36;;;;;;;11.60;3.50;;;;;;;14.04;56.07;100677.67;109043;1267;21974;-76
2022/07/16 01:18:05;;;;;;;8.50;3.50;;;;;;;14.03;56.17;100675.73;109073;1267;23699;-73
2022/07/16 01:20:34;;;;;;;4.90;2.50;;;;;;;14.03;56.14;100674.48;108968;1267;23754;-75
2022/07/16 01:23:03;;;;;;;7.20;2.80;;;;;;;14.06;56.21;100673.45;108927;1267;21979;-75
2022/07/16 01:25:32;;;;;;;8.10;3.10;;;;;;;14.09;56.33;100669.52;109078;1267;21990;-76
2022/07/16 01:28:01;;;;;;;7.50;2.60;;;;;;;14.12;56.26;100665.64;108474;1270;23084;-76
2022/07/16 01:30:31;;;;;;;5.00;2.40;;;;;;;14.13;56.27;100663.87;108751;1269;22471;-76
2022/07/16 01:32:59;;;;;;;4.80;2.50;;;;;;;14.13;56.09;100658.11;108810;1269;23807;-76
2022/07/16 01:35:28;;;;;;;6.80;2.80;;;;;;;14.12;55.94;100655.39;108839;1270;22066;-76
2022/07/16 01:37:57;;;;;;;6.80;3.10;;;;;;;14.12;55.81;100650.04;108635;1273;23595;-75
2022/07/16 01:40:26;;;;;;;6.80;2.80;;;;;;;14.12;55.49;100646.89;108521;1273;23889;-75
2022/07/16 01:42:55;;;;;;;10.30;3.70;;;;;;;14.10;55.45;100646.77;108594;1273;22034;-75
2022/07/16 01:45:24;;;;;;;9.30;3.60;;;;;;;14.08;55.43;100646.80;108546;1267;22313;-75
2022/07/16 01:47:54;;;;;;;12.30;4.70;;;;;;;14.07;55.46;100644.74;109096;1266;21995;-76
2022/07/16 01:50:23;;;;;;;9.70;4.50;;;;;;;14.07;55.57;100643.75;109069;1266;23616;-76
2022/07/16 01:52:52;;;;;;;6.80;4.10;;;;;;;14.07;55.68;100645.71;108917;1266;23741;-75
2022/07/16 01:55:20;;;;;;;10.50;4.10;;;;;;;14.09;55.98;100645.83;108940;1265;21973;-76
2022/07/16 01:57:50;;;;;;;6.20;3.80;;;;;;;14.10;56.08;100646.05;109499;1263;23704;-76
2022/07/16 02:00:19;;;;;;;8.30;3.70;;;;;;;14.11;56.30;100646.06;109467;1263;22751;-75
2022/07/16 02:02:48;;;;;;;7.80;3.50;;;;;;;14.12;56.39;100643.66;109140;1264;23036;-76
2022/07/16 02:05:17;;;;;;;7.50;4.20;;;;;;;14.11;56.60;100643.57;109552;1263;21948;-76
2022/07/16 02:07:46;;;;;;;7.60;4.10;;;;;;;14.10;56.73;100639.96;109552;1263;23051;-76
2022/07/16 02:10:15;;;;;;;6.80;4.00;;;;;;;14.08;56.80;100640.09;109509;1263;23128;-75
2022/07/16 02:12:45;;;;;;;8.10;3.40;;;;;;;14.05;56.89;100637.59;109520;1263;23051;-75
2022/07/16 02:15:18;;;;;;;6.40;4.10;;;;;;;14.03;57.05;100634.16;109551;1262;22081;-75
2022/07/16 02:17:47;;;;;;;6.80;4.40;;;;;;;14.01;57.05;100630.54;109261;1263;23067;-75
2022/07/16 02:20:17;;;;;;;7.10;4.20;;;;;;;13.99;57.11;100628.60;109657;1263;22922;-75
2022/07/16 02:22:47;;;;;;;7.70;3.60;;;;;;;13.99;57.16;100630.76;109457;1261;23055;-75
2022/07/16 02:25:16;;;;;;;7.90;3.70;;;;;;;13.96;57.25;100629.70;109604;1262;22756;-76
2022/07/16 02:30:36;;;;;;;10.40;4.00;;;;;;;13.93;57.39;100627.02;109626;1261;23040;-76
2022/07/16 02:33:07;;;;;;;7.60;3.90;;;;;;;13.90;57.18;100628.48;109526;1261;23576;-76
2022/07/16 02:35:38;;;;;;;12.60;3.70;;;;;;;13.84;57.13;100624.72;109449;1261;23734;-76
2022/07/16 02:38:08;;;;;;;7.20;3.30;;;;;;;13.83;57.24;100627.55;109764;1261;23054;-76
2022/07/16 02:40:38;;;;;;;6.20;3.70;;;;;;;13.82;57.34;100629.79;109655;1262;21977;-76
2022/07/16 02:43:09;;;;;;;7.80;3.80;;;;;;;13.79;57.21;100630.48;109644;1261;21978;-75
2022/07/16 02:45:41;;;;;;;6.20;3.40;;;;;;;13.71;57.09;100626.93;109525;1261;22267;-75
2022/07/16 02:48:11;;;;;;;6.80;3.70;;;;;;;13.65;57.24;100630.85;109382;1261;22099;-73
2022/07/16 02:50:40;;;;;;;6.10;3.70;;;;;;;13.59;57.15;100629.29;109703;1261;23570;-74
2022/07/16 02:53:09;;;;;;;6.20;3.10;;;;;;;13.55;57.46;100628.12;109541;1262;22040;-75
2022/07/16 02:55:38;;;;;;;8.00;3.10;;;;;;;13.56;57.71;100618.99;109654;1263;21978;-74
2022/07/16 02:58:07;;;;;;;5.90;2.60;;;;;;;13.60;57.84;100624.34;109600;1261;21969;-75
2022/07/16 03:00:36;;;;;;;9.80;3.60;;;;;;;13.62;57.74;100618.84;109752;1262;22036;-75
2022/07/16 03:03:05;;;;;;;7.20;2.50;;;;;;;13.63;57.79;100617.10;108941;1267;23825;-75
2022/07/16 03:05:34;;;;;;;6.00;3.40;;;;;;;13.64;57.82;100613.46;108925;1267;23619;-75
2022/07/16 03:08:05;;;;;;;6.80;3.10;;;;;;;13.63;57.75;100615.17;109101;1267;21979;-76
2022/07/16 03:10:34;;;;;;;6.10;2.50;;;;;;;13.61;57.77;100612.05;109127;1266;23725;-75
2022/07/16 03:13:03;;;;;;;7.30;3.20;;;;;;;13.60;57.69;100613.94;109162;1266;22097;-75
2022/07/16 03:15:32;;;;;;;5.10;3.10;;;;;;;13.59;57.57;100613.20;109071;1266;21992;-75
2022/07/16 03:18:01;;;;;;;8.20;3.10;;;;;;;13.59;57.70;100614.17;109121;1267;23724;-75
2022/07/16 03:20:30;;;;;;;5.80;3.40;;;;;;;13.61;57.79;100612.27;108729;1268;22331;-75
2022/07/16 03:22:59;;;;;;;7.10;3.10;;;;;;;13.62;57.88;100611.15;109017;1267;22056;-76
2022/07/16 03:25:29;;;;;;;9.90;3.60;;;;;;;13.64;57.96;100611.11;109112;1267;22072;-76
2022/07/16 03:27:58;;;;;;;7.30;3.40;;;;;;;13.66;58.07;100610.06;109038;1267;23623;-75
2022/07/16 03:30:27;;;;;;;6.00;2.80;;;;;;;13.65;57.95;100609.84;109086;1267;21982;-76
2022/07/16 03:32:58;;;;;;;9.50;3.30;;;;;;;13.62;58.03;100611.69;109040;1267;21996;-75
2022/07/16 03:35:28;;;;;;;5.60;2.70;;;;;;;13.61;58.08;100611.15;109139;1267;22049;-76
2022/07/16 03:40:44;;;;;;;9.80;4.40;;;;;;;13.63;58.47;100609.46;109588;1261;23099;-75
2022/07/16 03:43:13;;;;;;;5.50;3.00;;;;;;;13.70;58.63;100608.13;109601;1261;24312;-76
2022/07/16 03:45:42;;;;;;;8.80;3.70;;;;;;;13.75;58.28;100601.35;109605;1261;21980;-76
2022/07/16 03:48:11;;;;;;;7.20;2.90;;;;;;;13.79;58.33;100602.88;109326;1261;22764;-75
2022/07/16 03:50:41;;;;;;;16.50;10.70;;;;;;;13.82;58.10;100606.25;109693;1263;23020;-76
2022/07/16 03:53:09;;;;;;;22.00;19.70;;;;;;;13.81;58.09;100606.49;109531;1261;22416;-76
2022/07/16 03:55:38;;;;;;;6.20;4.60;;;;;;;13.82;58.01;100606.78;109586;1261;23688;-76
2022/07/16 03:58:07;;;;;;;6.80;3.40;;;;;;;13.81;58.05;100603.67;109552;1261;23049;-76
2022/07/16 04:00:36;;;;;;;5.60;2.80;;;;;;;13.81;58.07;100606.70;109614;1261;22545;-76
2022/07/16 04:03:05;;;;;;;5.30;2.80;;;;;;;13.79;57.97;100605.97;109613;1262;22829;-76
2022/07/16 04:05:34;;;;;;;8.80;3.70;;;;;;;13.79;58.23;100604.76;109767;1261;22248;-76
2022/07/16 04:08:04;;;;;;;8.30;3.90;;;;;;;13.85;58.40;100607.30;109217;1263;22858;-75
2022/07/16 04:10:33;;;;;;;7.30;2.80;;;;;;;13.90;58.44;100606.79;109570;1261;21978;-76
2022/07/16 04:13:02;;;;;;;7.70;3.60;;;;;;;13.96;58.44;100602.70;109792;1262;21971;-76
2022/07/16 04:15:33;;;;;;;7.60;3.00;;;;;;;14.04;58.70;100601.61;109551;1261;22055;-75
2022/07/16 04:18:02;;;;;;;5.80;2.90;;;;;;;14.12;58.52;100601.35;108915;1267;23087;-76
2022/07/16 04:20:32;;;;;;;10.70;3.60;;;;;;;14.17;58.48;100597.19;109074;1267;24409;-75
2022/07/16 04:23:01;;;;;;;6.50;2.90;;;;;;;14.20;58.47;100589.23;109085;1266;23774;-76
2022/07/16 04:25:30;;;;;;;6.10;3.20;;;;;;;14.24;58.28;100589.98;108889;1267;22452;-75
2022/07/16 04:27:59;;;;;;;8.20;3.50;;;;;;;14.24;57.94;100592.14;108912;1268;21985;-77
2022/07/16 04:30:28;;;;;;;11.40;3.60;;;;;;;14.21;57.88;100590.95;108983;1267;21979;-76
2022/07/16 04:32:57;;;;;;;4.90;2.60;;;;;;;14.19;58.10;100586.52;109063;1267;22046;-76
2022/07/16 04:35:26;;;;;;;7.90;2.90;;;;;;;14.20;58.13;100588.17;108972;1261;21995;-75
2022/07/16 04:37:55;;;;;;;6.90;3.30;;;;;;;14.23;58.05;100587.80;109319;1262;22400;-76
2022/07/16 04:40:24;;;;;;;10.60;3.30;;;;;;;14.29;58.12;100588.62;109748;1261;21991;-76
2022/07/16 04:42:53;;;;;;;9.20;2.40;;;;;;;14.37;58.11;100587.39;109567;1261;23055;-76
2022/07/16 04:45:22;;;;;;;11.20;3.00;;;;;;;14.46;57.97;100588.75;109543;1261;22282;-76
2022/07/16 04:47:51;;;;;;;5.30;3.30;;;;;;;14.56;57.81;100591.77;109822;1261;21969;-76
2022/07/16 04:50:20;;;;;;;4.30;2.50;;;;;;;14.66;57.47;100589.14;109775;1261;23718;-76
2022/07/16 04:52:55;;;;;;;6.30;2.60;;;;;;;14.75;57.08;100584.69;109922;1260;23721;-75
2022/07/16 04:55:25;;;;;;;5.40;2.30;;;;;;;14.84;56.72;100586.48;109771;1262;22918;-75
2022/07/16 04:57:55;;;;;;;14.60;9.70;;;;;;;14.93;56.29;100583.92;109594;1260;22011;-75
2022/07/16 05:00:27;;;;;;;9.20;5.00;;;;;;;15.01;55.76;100581.42;109779;1260;21969;-75
2022/07/16 05:02:56;;;;;;;4.50;2.70;;;;;;;15.07;54.96;100580.92;109799;1260;23240;-75
2022/07/16 05:05:36;;;;;;;7.50;2.60;;;;;;;15.11;54.58;100580.96;109824;1260;22377;-75
2022/07/16 05:08:08;;;;;;;6.50;2.20;;;;;;;15.17;54.43;100575.00;109632;1261;23055;-75
2022/07/16 05:10:37;;;;;;;5.30;2.90;;;;;;;15.26;54.12;100572.95;109910;1261;22323;-76
2022/07/16 05:13:07;;;;;;;5.50;2.40;;;;;;;15.34;53.75;100572.31;109970;1260;21986;-75
2022/07/16 05:15:37;;;;;;;7.80;2.20;;;;;;;15.42;53.53;100568.35;109907;1260;21984;-75
2022/07/16 05:18:07;;;;;;;5.10;2.10;;;;;;;15.50;53.26;100569.55;109581;1261;23124;-75
2022/07/16 05:20:36;;;;;;;4.70;2.00;;;;;;;15.58;53.05;100569.16;109055;1267;22205;-75
2022/07/16 05:23:05;;;;;;;4.90;2.30;;;;;;;15.67;52.79;100568.16;109045;1267;23729;-75
2022/07/16 05:25:35;;;;;;;8.60;2.40;;;;;;;15.81;52.79;100570.18;109114;1267;23721;-75
2022/07/16 05:28:04;;;;;;;8.30;1.80;;;;;;;16.00;52.75;100569.24;109062;1267;22211;-74
2022/07/16 05:30:33;;;;;;;5.00;1.90;;;;;;;16.25;52.53;100570.42;109183;1265;21975;-74
2022/07/16 05:33:02;;;;;;;5.10;2.20;;;;;;;16.50;52.02;100569.52;108990;1269;22076;-74
2022/07/16 05:35:31;;;;;;;7.00;2.20;;;;;;;16.74;51.56;100574.44;109047;1267;21983;-73
2022/07/16 05:38:00;;;;;;;3.80;2.10;;;;;;;17.02;51.15;100569.06;109051;1264;21983;-73
2022/07/16 05:40:29;;;;;;;4.50;1.80;;;;;;;17.31;50.55;100564.58;109794;1262;22057;-75
2022/07/16 05:42:58;;;;;;;4.30;1.60;;;;;;;17.54;49.38;100559.36;109063;1267;23065;-73
2022/07/16 05:45:27;;;;;;;7.20;2.10;;;;;;;17.75;48.77;100553.14;108974;1267;23036;-75
2022/07/16 05:47:55;;;;;;;5.00;1.80;;;;;;;17.97;48.28;100555.16;109044;1266;23069;-74
2022/07/16 05:50:25;;;;;;;7.80;2.50;;;;;;;18.16;47.44;100555.80;109047;1267;21995;-74
2022/07/16 05:52:54;;;;;;;8.50;2.00;;;;;;;18.31;46.64;100555.88;109030;1267;23771;-74
2022/07/16 05:55:23;;;;;;;8.00;2.80;;;;;;;18.42;45.99;100556.91;109007;1267;21965;-75
2022/07/16 05:57:51;;;;;;;8.50;2.10;;;;;;;18.45;45.46;100551.87;109099;1267;22767;-74
2022/07/16 06:00:20;;;;;;;5.50;1.80;;;;;;;18.45;45.35;100553.80;109087;1264;21991;-74
2022/07/16 06:02:49;;;;;;;5.30;1.70;;;;;;;18.46;45.19;100553.30;109581;1263;22056;-73
2022/07/16 06:05:18;;;;;;;8.10;2.00;;;;;;;18.44;45.13;100550.11;109545;1263;21971;-74
2022/07/16 06:07:47;;;;;;;5.80;2.00;;;;;;;18.46;45.31;100548.90;109438;1263;22400;-74
2022/07/16 06:10:16;;;;;;;6.90;2.20;;;;;;;18.46;45.05;100546.59;109497;1263;21978;-74
2022/07/16 06:12:45;;;;;;;4.90;2.20;;;;;;;18.45;44.97;100546.92;109461;1263;23094;-73
2022/07/16 06:15:14;;;;;;;4.40;1.90;;;;;;;18.46;44.95;100545.48;109706;1263;22212;-73
2022/07/16 06:17:43;;;;;;;4.40;1.70;;;;;;;18.50;44.82;100544.64;109524;1263;22019;-73
2022/07/16 06:20:12;;;;;;;3.40;1.70;;;;;;;18.48;44.56;100546.09;109746;1262;21974;-73
2022/07/16 06:22:41;;;;;;;5.80;1.90;;;;;;;18.43;44.31;100545.37;109614;1261;24308;-74
2022/07/16 06:25:13;;;;;;;5.30;2.30;;;;;;;18.45;44.75;100544.09;109610;1263;21969;-74
2022/07/16 06:27:44;;;;;;;3.10;2.00;;;;;;;18.46;44.57;100543.34;109375;1263;21975;-76
2022/07/16 06:30:17;;;;;;;5.50;1.90;;;;;;;18.46;44.54;100544.75;109055;1268;23108;-75
2022/07/16 06:32:52;;;;;;;6.60;2.40;;;;;;;18.50;44.60;100540.15;108772;1267;23581;-74
2022/07/16 06:35:24;;;;;;;6.30;1.80;;;;;;;18.51;44.24;100537.19;108910;1267;21985;-74
2022/07/16 06:37:56;;;;;;;4.90;1.90;;;;;;;18.48;44.07;100532.92;108936;1267;23708;-75
2022/07/16 06:40:40;;;;;;;;;;;;;;;;;;;;;
2022/07/16 06:43:15;;;;;;;5.30;2.00;;;;;;;18.43;44.38;100531.55;108909;1267;22008;-74
2022/07/16 06:45:44;;;;;;;3.60;2.10;;;;;;;18.44;44.38;100527.84;109165;1267;21978;-74
2022/07/16 06:48:14;;;;;;;7.20;2.00;;;;;;;18.42;44.51;100526.54;109031;1263;21978;-76
2022/07/16 06:50:49;;;;;;;5.40;2.30;;;;;;;18.48;44.62;100523.50;109534;1263;23614;-74
2022/07/16 06:53:53;;;;;;;6.90;2.40;;;;;;;18.58;44.85;100523.48;109859;1261;21976;-78
2022/07/16 06:57:26;;;;;;;;;;;;;;;;;;;;;
2022/07/16 07:01:03;;;;;;;7.90;2.80;;;;;;;18.79;44.21;100517.30;108437;1274;21989;-78
2022/07/16 07:03:43;;;;;;;4.30;2.10;;;;;;;18.88;44.15;100511.85;108175;1279;23091;-78
2022/07/16 07:06:44;;;;;;;5.50;2.10;;;;;;;18.97;43.97;100507.61;108130;1279;21992;-78
2022/07/16 07:09:23;;;;;;;8.40;1.80;;;;;;;19.10;44.15;100505.02;107904;1282;22010;-78
2022/07/16 07:12:03;;;;;;;5.00;2.10;;;;;;;19.15;43.63;100505.27;107493;1282;24369;-78
2022/07/16 07:15:05;;;;;;;8.60;1.80;;;;;;;19.21;43.76;100504.13;107965;1282;22005;-78
2022/07/16 07:17:50;;;;;;;6.50;2.10;;;;;;;19.26;43.39;100499.52;107648;1282;22010;-78
2022/07/16 07:20:24;;;;;;;9.50;2.10;;;;;;;19.33;43.55;100500.02;107781;1282;23069;-80
2022/07/16 07:23:16;;;;;;;;;;;;;;;;;;;;;
2022/07/16 07:26:05;;;;;;;6.20;2.00;;;;;;;19.46;43.09;100495.14;107956;1285;23789;-77
2022/07/16 07:28:43;;;;;;;3.30;2.10;;;;;;;19.52;43.19;100495.56;107908;1285;22008;-80
2022/07/16 07:31:40;;;;;;;5.40;1.70;;;;;;;19.60;43.12;100496.17;107879;1285;24355;-78
2022/07/16 07:34:39;;;;;;;9.80;2.00;;;;;;;19.69;42.94;100495.98;107651;1286;22124;-78
2022/07/16 07:37:24;;;;;;;8.60;2.70;;;;;;;19.68;42.37;100495.84;107964;1279;22001;-79
2022/07/16 07:40:31;;;;;;;4.80;2.00;;;;;;;19.68;42.69;100497.45;108058;1279;22002;-79
2022/07/16 07:43:56;;;;;;;4.00;1.90;;;;;;;19.73;43.03;100497.29;108386;1275;22190;-78
2022/07/16 07:47:23;;;;;;;3.70;1.60;;;;;;;19.77;42.88;100498.41;108657;1269;23069;-78
2022/07/16 07:50:44;;;;;;;7.40;1.90;;;;;;;19.80;42.91;100499.20;108884;1269;23781;-79
2022/07/16 07:54:05;;;;;;;;;;;;;;;;;;;;;
2022/07/16 07:57:32;;;;;;;9.90;2.10;;;;;;;19.74;42.89;100497.79;108674;1270;22942;-78
2022/07/16 08:00:45;;;;;;;3.90;1.50;;;;;;;19.73;43.18;100497.71;108831;1270;22046;-77
2022/07/16 08:04:37;;;;;;;;;;;;;;;;;;;;;
2022/07/16 08:07:48;;;;;;;3.90;1.80;;;;;;;19.75;43.31;100490.15;108762;1270;22084;-81
2022/07/16 08:10:50;;;;;;;;;;;;;;;;;;;;;
2022/07/16 08:13:23;;;;;;;6.60;2.00;;;;;;;19.68;43.46;100491.41;108893;1267;22800;-76
2022/07/16 08:16:06;;;;;;;6.50;2.20;;;;;;;19.69;43.57;100485.25;108378;1274;23049;-78
2022/07/16 08:18:48;;;;;;;5.00;1.70;;;;;;;19.67;43.51;100486.16;108588;1275;21987;-77
2022/07/16 08:21:45;;;;;;;;;;;;;;;;;;;;;
2022/07/16 08:27:38;;;;;;;;;;;;;;;19.54;44.22;100478.20;108599;1274;21973;-77
2022/07/16 08:30:09;;;;;;;3.30;1.70;;;;;;;19.45;44.43;100478.70;108071;1276;22041;-77
2022/07/16 08:32:44;;;;;;;3.70;1.80;;;;;;;19.47;44.42;100478.15;108610;1275;22761;-77
2022/07/16 08:35:23;;;;;;;4.90;1.30;;;;;;;19.55;44.80;100479.85;108764;1270;21948;-78
2022/07/16 08:38:02;;;;;;;3.40;1.20;;;;;;;19.62;44.82;100473.96;108360;1276;22450;-77
2022/07/16 08:41:13;;;;;;;6.40;1.80;;;;;;;19.70;44.67;100465.23;108284;1276;22013;-77
2022/07/16 08:43:47;;;;;;;3.60;1.50;;;;;;;19.80;44.41;100460.80;108368;1276;22016;-78
2022/07/16 08:46:34;;;;;;;4.20;1.10;;;;;;;19.89;44.21;100461.48;108664;1270;22156;-78
2022/07/16 08:49:20;;;;;;;5.00;1.30;;;;;;;20.01;43.99;100461.06;108865;1270;23614;-78
2022/07/16 08:51:58;;;;;;;4.10;1.30;;;;;;;20.12;43.68;100459.42;108816;1270;24166;-77
2022/07/16 08:54:45;;;;;;;2.40;1.00;;;;;;;20.19;43.54;100458.05;108803;1270;23782;-77
2022/07/16 08:57:35;;;;;;;8.40;1.40;;;;;;;20.28;43.32;100462.41;109528;1263;22196;-78
2022/07/16 09:00:17;;;;;;;2.50;1.10;;;;;;;20.30;43.01;100458.70;109583;1262;23076;-78
2022/07/16 09:02:50;;;;;;;5.70;1.20;;;;;;;20.28;42.56;100461.27;109516;1263;22063;-78
2022/07/16 09:05:29;;;;;;;3.50;1.00;;;;;;;20.26;42.38;100465.13;109490;1263;22515;-77
2022/07/16 09:08:00;;;;;;;2.50;0.90;;;;;;;20.28;42.39;100465.02;109678;1262;22029;-77
2022/07/16 09:10:39;;;;;;;6.50;1.40;;;;;;;20.27;42.09;100463.63;108930;1267;23229;-77
2022/07/16 09:13:23;;;;;;;3.20;1.10;;;;;;;20.27;41.99;100461.83;108884;1267;22655;-77
2022/07/16 09:15:59;;;;;;;5.70;1.30;;;;;;;20.35;42.35;100462.80;108929;1267;21978;-77
2022/07/16 09:18:43;;;;;;;5.50;1.40;;;;;;;20.49;42.14;100456.42;108929;1267;22431;-77
2022/07/16 09:21:25;;;;;;;4.50;1.10;;;;;;;20.58;41.80;100453.73;109121;1267;21987;-78
2022/07/16 09:24:17;;;;;;;1.80;0.80;;;;;;;20.69;41.77;100448.59;108910;1267;21979;-77
2022/07/16 09:27:11;;;;;;;5.50;1.40;;;;;;;20.83;41.74;100452.20;108968;1267;22443;-79
2022/07/16 09:29:58;;;;;;;3.20;0.80;;;;;;;20.91;41.26;100451.23;109195;1265;23147;-76
2022/07/16 09:32:39;;;;;;;4.40;1.00;;;;;;;20.95;40.85;100447.96;108948;1267;21975;-78
2022/07/16 09:35:16;;;;;;;4.50;1.10;;;;;;;20.91;40.49;100443.73;108990;1267;23635;-78
2022/07/16 09:38:01;;;;;;;10.10;1.10;;;;;;;20.93;40.71;100438.67;109045;1267;22017;-77
2022/07/16 09:40:45;;;;;;;4.00;0.80;;;;;;;20.95;40.29;100429.16;108844;1269;22010;-78
2022/07/16 09:43:20;;;;;;;2.50;1.00;;;;;;;20.95;40.21;100429.48;108560;1276;23620;-78
2022/07/16 09:45:58;;;;;;;4.80;1.00;;;;;;;20.98;40.25;100432.65;108504;1273;22055;-77
2022/07/16 09:48:29;;;;;;;2.60;0.80;;;;;;;20.95;39.90;100430.52;108455;1273;22320;-78
2022/07/16 09:51:38;;;;;;;2.90;0.80;;;;;;;20.88;39.74;100428.15;108397;1279;23089;-78
2022/07/16 09:54:33;;;;;;;1.70;0.90;;;;;;;20.76;39.65;100429.28;107577;1288;23096;-78
2022/07/16 09:57:20;;;;;;;3.10;1.10;;;;;;;20.69;40.00;100422.59;107777;1282;22001;-77
2022/07/16 09:59:49;;;;;;;4.70;1.30;;;;;;;20.63;40.34;100414.67;108030;1282;22182;-77
2022/07/16 10:02:30;;;;;;;8.70;1.10;;;;;;;20.69;40.77;100416.64;108320;1276;22003;-78
2022/07/16 10:05:03;;;;;;;4.10;1.10;;;;;;;20.79;40.45;100412.79;108439;1275;22061;-77
2022/07/16 10:07:34;;;;;;;3.80;1.30;;;;;;;20.87;40.45;100413.71;108282;1279;21996;-77
2022/07/16 10:10:05;;;;;;;4.30;1.10;;;;;;;20.95;40.20;100406.96;107920;1282;23063;-78
2022/07/16 10:12:35;;;;;;;3.60;0.80;;;;;;;21.00;40.28;100402.95;107830;1285;22020;-78
2022/07/16 10:15:06;;;;;;;3.00;1.20;;;;;;;21.05;40.03;100396.03;107475;1285;21984;-78
2022/07/16 10:17:39;;;;;;;3.30;0.90;;;;;;;21.10;40.13;100393.02;107814;1285;22355;-77
2022/07/16 10:20:12;;;;;;;3.40;1.60;;;;;;;21.20;40.29;100391.73;107786;1285;22013;-77
2022/07/16 10:22:51;;;;;;;2.70;1.10;;;;;;;21.32;39.78;100387.73;107788;1284;23202;-77
2022/07/16 10:25:27;;;;;;;3.10;1.10;;;;;;;21.34;39.47;100391.75;107762;1285;22021;-78
2022/07/16 10:27:56;;;;;;;4.90;1.10;;;;;;;21.29;39.17;100388.63;107754;1283;23058;-78
2022/07/16 10:30:32;;;;;;;5.50;1.10;;;;;;;21.21;39.28;100389.33;108265;1275;22007;-78
2022/07/16 10:33:07;;;;;;;4.30;0.80;;;;;;;21.16;39.30;100392.71;109098;1264;22030;-76
2022/07/16 10:35:38;;;;;;;10.20;1.10;;;;;;;21.08;39.16;100393.20;109685;1263;22027;-78
2022/07/16 10:38:21;;;;;;;6.30;1.00;;;;;;;21.00;39.07;100400.75;109739;1263;23074;-77
2022/07/16 10:41:15;;;;;;;3.40;0.80;;;;;;;20.85;38.99;100408.26;109724;1261;21974;-77
2022/07/16 10:44:10;;;;;;;2.30;0.80;;;;;;;20.72;39.18;100418.23;109317;1266;22592;-77
2022/07/16 10:47:03;;;;;;;7.10;1.30;;;;;;;20.61;39.80;100429.23;109131;1267;22062;-77
2022/07/16 10:49:32;;;;;;;5.00;1.00;;;;;;;20.42;40.65;100440.08;108613;1273;23699;-77
2022/07/16 10:52:05;;;;;;;18.60;1.40;;;;;;;20.20;41.61;100451.59;108638;1273;21991;-77
2022/07/16 10:54:39;;;;;;;2.90;0.90;;;;;;;19.94;42.35;100461.50;108721;1273;21978;-77
2022/07/16 10:57:11;;;;;;;3.70;1.00;;;;;;;19.70;43.45;100468.39;108728;1273;21989;-78
2022/07/16 10:59:48;;;;;;;4.70;0.90;;;;;;;19.49;44.56;100477.95;108419;1273;22236;-77
2022/07/16 11:02:18;;;;;;;3.90;1.10;;;;;;;19.24;45.84;100491.29;108461;1273;21993;-77
2022/07/16 11:04:55;;;;;;;5.30;1.40;;;;;;;18.96;47.14;100501.06;108669;1267;23175;-75
2022/07/16 11:07:36;;;;;;;3.20;1.10;;;;;;;18.71;48.85;100503.67;108578;1268;22325;-79
2022/07/16 11:10:11;;;;;;;3.20;1.40;;;;;;;18.48;49.93;100518.68;108960;1268;21984;-77
2022/07/16 11:12:43;;;;;;;3.30;1.10;;;;;;;18.25;50.90;100521.45;108900;1268;22774;-77
2022/07/16 11:15:17;;;;;;;4.70;1.20;;;;;;;18.05;52.09;100521.27;109065;1267;23596;-77
2022/07/16 11:17:57;;;;;;;3.80;1.60;;;;;;;17.89;52.92;100523.88;109092;1267;21990;-76
2022/07/16 11:20:36;;;;;;;3.70;1.70;;;;;;;17.72;53.61;100523.18;108946;1268;23714;-76
2022/07/16 11:23:14;;;;;;;5.00;1.60;;;;;;;17.59;54.43;100523.16;109027;1268;21978;-78
2022/07/16 11:26:01;;;;;;;6.10;1.80;;;;;;;17.47;55.16;100524.05;109036;1267;21979;-77
2022/07/16 11:28:31;;;;;;;5.40;1.90;;;;;;;17.36;56.17;100531.17;109184;1266;22008;-78
2022/07/16 11:31:06;;;;;;;7.20;1.90;;;;;;;17.30;57.10;100531.84;109558;1263;21986;-77
2022/07/16 11:33:56;;;;;;;5.20;1.60;;;;;;;17.24;57.72;100531.64;109323;1264;22962;-77
2022/07/16 11:36:28;;;;;;;5.40;1.80;;;;;;;17.19;58.42;100536.54;109476;1263;22044;-76
2022/07/16 11:39:18;;;;;;;6.30;2.00;;;;;;;17.15;58.88;100532.97;109584;1263;23069;-77
2022/07/16 11:41:58;;;;;;;3.90;1.80;;;;;;;17.12;59.90;100523.48;109513;1264;22754;-78
2022/07/16 11:44:33;;;;;;;4.40;2.50;;;;;;;17.15;60.78;100521.19;109385;1264;21998;-77
2022/07/16 11:47:09;;;;;;;4.10;2.60;;;;;;;17.24;61.42;100519.65;109920;1263;23029;-76
2022/07/16 11:49:44;;;;;;;4.70;2.30;;;;;;;17.36;61.87;100516.84;108903;1270;22002;-77
2022/07/16 11:52:20;;;;;;;3.00;2.00;;;;;;;17.50;62.35;100511.30;108989;1270;24211;-77
2022/07/16 11:54:56;;;;;;;5.30;2.10;;;;;;;17.70;62.65;100508.61;108758;1269;218629;-76
2022/07/16 11:57:26;;;;;;;5.40;2.20;;;;;;;17.88;62.56;100503.85;108993;1267;24030;-76
2022/07/16 11:59:55;;;;;;;5.90;3.60;;;;;;;18.00;62.14;100501.10;108968;1270;24397;-75
2022/07/16 12:02:27;;;;;;;4.90;3.20;;;;;;;18.14;62.49;100499.92;108714;1273;23011;-74
2022/07/16 12:04:59;;;;;;;4.70;2.70;;;;;;;18.32;62.89;100498.62;108730;1273;22003;-76
2022/07/16 12:07:31;;;;;;;2.60;1.80;;;;;;;18.52;62.87;100498.06;108741;1273;22020;-77
2022/07/16 12:10:05;;;;;;;3.40;1.70;;;;;;;18.69;62.52;100495.29;108407;1279;23648;-77
2022/07/16 12:12:36;;;;;;;3.70;1.90;;;;;;;18.83;61.54;100495.45;107933;1284;22047;-77
2022/07/16 12:15:12;;;;;;;5.00;2.00;;;;;;;18.91;60.92;100494.77;107790;1283;23707;-76
2022/07/16 12:17:46;;;;;;;6.30;2.30;;;;;;;19.00;60.72;100493.07;107987;1281;21995;-77
2022/07/16 12:20:22;;;;;;;4.30;2.10;;;;;;;19.07;60.41;100490.45;108006;1281;22632;-75